Portada
METAR-TAF:

METAR-TAF

Aeropuertos :

Asaluyeh, Irán

latitud: 27-22-46N, longitud: 52-44-15E, altitud: 8 m

Observación

El informe se hizo hace 14 minutos, a las 05:30 UTC
Viento 8 kt del sureste
Temperatura 41°C
Humedad 27%
Presión 1000 hPa
Visibilidad: 6000 m
Nubes dispersas a una altura de 4000 ft

METAR: OIBP 040530Z 14008KT 6000 SCT040 41/18 Q0999 A2952

Hora: 10:14 (05:44 UTC)


TAF: falta

Observaciones y pronósticos meteorológicos de más de 4000 aeropuertos (mensajes METAR y TAF).

Los puntos amarillos y rojos representan las estaciones disponibles.

Ponga el ratón en el punto deseado para ver el nombre de la estación.

Haga clic para ver las observaciones y los pronósticos meteorológicos.

Para cambiar el mapa : haga clic en los botones verdes con una cruz de color negro para hacer un zoom, en el botón verde con un guión para alejar o en las flechas verdes para mapas adyacentes.


METAR-TAF: